sensor_id;sensor_type;location;lat;lon;timestamp;pressure;altitude;pressure_sealevel;temperature;humidity
7407;BME280;3745;56.964;24.128;2023-04-07T00:01:42;102179.91;;;4.25;100.00
7407;BME280;3745;56.964;24.128;2023-04-07T00:04:08;102174.53;;;4.19;100.00
7407;BME280;3745;56.964;24.128;2023-04-07T00:06:34;102181.09;;;4.17;100.00
7407;BME280;3745;56.964;24.128;2023-04-07T00:09:00;102184.91;;;4.25;100.00
7407;BME280;3745;56.964;24.128;2023-04-07T00:11:26;102175.69;;;4.24;100.00
7407;BME280;3745;56.964;24.128;2023-04-07T00:13:52;102172.31;;;4.23;100.00
7407;BME280;3745;56.964;24.128;2023-04-07T00:16:17;102131.31;;;3.95;100.00
7407;BME280;3745;56.964;24.128;2023-04-07T00:18:43;102174.72;;;4.22;100.00
7407;BME280;3745;56.964;24.128;2023-04-07T00:21:08;102176.25;;;4.20;100.00
7407;BME280;3745;56.964;24.128;2023-04-07T00:23:34;102143.84;;;3.95;100.00
7407;BME280;3745;56.964;24.128;2023-04-07T00:26:00;102112.38;;;3.86;100.00
7407;BME280;3745;56.964;24.128;2023-04-07T00:28:25;102113.91;;;3.83;100.00
7407;BME280;3745;56.964;24.128;2023-04-07T00:30:51;102074.25;;;3.63;100.00
7407;BME280;3745;56.964;24.128;2023-04-07T00:33:17;102153.91;;;4.10;100.00
7407;BME280;3745;56.964;24.128;2023-04-07T00:35:42;102174.53;;;4.19;100.00
7407;BME280;3745;56.964;24.128;2023-04-07T00:38:08;102172.81;;;4.18;100.00
7407;BME280;3745;56.964;24.128;2023-04-07T00:40:34;102167.81;;;4.18;100.00
7407;BME280;3745;56.964;24.128;2023-04-07T00:42:59;102118.72;;;3.80;100.00
7407;BME280;3745;56.964;24.128;2023-04-07T00:45:25;102106.78;;;3.76;100.00
7407;BME280;3745;56.964;24.128;2023-04-07T00:47:50;102096.13;;;3.66;100.00
7407;BME280;3745;56.964;24.128;2023-04-07T00:50:17;102177.44;;;4.12;100.00
7407;BME280;3745;56.964;24.128;2023-04-07T00:52:43;102139.50;;;3.93;100.00
7407;BME280;3745;56.964;24.128;2023-04-07T00:55:09;102143.34;;;4.01;100.00
7407;BME280;3745;56.964;24.128;2023-04-07T00:57:35;102094.47;;;3.66;100.00
7407;BME280;3745;56.964;24.128;2023-04-07T01:00:00;102172.06;;;4.06;100.00
7407;BME280;3745;56.964;24.128;2023-04-07T01:02:56;102178.09;;;4.09;100.00
7407;BME280;3745;56.964;24.128;2023-04-07T01:05:29;102174.84;;;4.10;100.00
7407;BME280;3745;56.964;24.128;2023-04-07T01:08:23;102089.09;;;3.60;100.00
7407;BME280;3745;56.964;24.128;2023-04-07T01:11:06;102121.44;;;3.83;100.00
7407;BME280;3745;56.964;24.128;2023-04-07T01:13:42;102132.19;;;3.82;100.00
7407;BME280;3745;56.964;24.128;2023-04-07T01:16:14;102115.63;;;3.84;100.00
7407;BME280;3745;56.964;24.128;2023-04-07T01:18:43;102074.25;;;3.63;100.00
7407;BME280;3745;56.964;24.128;2023-04-07T01:21:14;102162.97;;;4.21;100.00
7407;BME280;3745;56.964;24.128;2023-04-07T01:26:34;102138.16;;;3.98;100.00
7407;BME280;3745;56.964;24.128;2023-04-07T01:31:51;102157.97;;;4.21;100.00
7407;BME280;3745;56.964;24.128;2023-04-07T01:34:19;102108.69;;;3.94;100.00
7407;BME280;3745;56.964;24.128;2023-04-07T01:36:47;102159.66;;;4.22;100.00
7407;BME280;3745;56.964;24.128;2023-04-07T01:39:14;102058.47;;;3.64;100.00
7407;BME280;3745;56.964;24.128;2023-04-07T01:41:41;102128.19;;;4.12;100.00
7407;BME280;3745;56.964;24.128;2023-04-07T01:44:07;102156.97;;;4.32;100.00
7407;BME280;3745;56.964;24.128;2023-04-07T01:46:34;102107.53;;;4.02;100.00
7407;BME280;3745;56.964;24.128;2023-04-07T01:49:00;102134.75;;;4.10;100.00
7407;BME280;3745;56.964;24.128;2023-04-07T01:51:27;102133.69;;;4.07;100.00
7407;BME280;3745;56.964;24.128;2023-04-07T01:53:55;102108.22;;;3.86;100.00
7407;BME280;3745;56.964;24.128;2023-04-07T01:56:21;102130.44;;;3.95;100.00
7407;BME280;3745;56.964;24.128;2023-04-07T01:58:47;102057.16;;;3.56;100.00
7407;BME280;3745;56.964;24.128;2023-04-07T02:01:13;102128.94;;;3.97;100.00
7407;BME280;3745;56.964;24.128;2023-04-07T02:03:43;102161.41;;;4.23;100.00
7407;BME280;3745;56.964;24.128;2023-04-07T02:06:19;102167.13;;;4.20;100.00
7407;BME280;3745;56.964;24.128;2023-04-07T02:08:56;102164.69;;;4.22;100.00
7407;BME280;3745;56.964;24.128;2023-04-07T02:11:25;102164.69;;;4.22;100.00
7407;BME280;3745;56.964;24.128;2023-04-07T02:13:53;102154.91;;;4.12;100.00
7407;BME280;3745;56.964;24.128;2023-04-07T02:16:20;102167.97;;;4.21;100.00
7407;BME280;3745;56.964;24.128;2023-04-07T02:18:46;102131.88;;;4.04;100.00
7407;BME280;3745;56.964;24.128;2023-04-07T02:21:14;102119.66;;;3.96;100.00
7407;BME280;3745;56.964;24.128;2023-04-07T02:23:40;102054.28;;;3.50;100.00
7407;BME280;3745;56.964;24.128;2023-04-07T02:26:06;102158.16;;;4.11;100.00
7407;BME280;3745;56.964;24.128;2023-04-07T02:28:32;102158.06;;;4.09;100.00
7407;BME280;3745;56.964;24.128;2023-04-07T02:30:57;102139.50;;;3.93;100.00
7407;BME280;3745;56.964;24.128;2023-04-07T02:33:23;102124.13;;;3.87;100.00
7407;BME280;3745;56.964;24.128;2023-04-07T02:35:48;102151.84;;;4.03;100.00
7407;BME280;3745;56.964;24.128;2023-04-07T02:38:14;102157.22;;;4.09;100.00
7407;BME280;3745;56.964;24.128;2023-04-07T02:40:39;102109.09;;;3.73;100.00
7407;BME280;3745;56.964;24.128;2023-04-07T02:43:05;102103.34;;;3.74;100.00
7407;BME280;3745;56.964;24.128;2023-04-07T02:45:31;102062.91;;;3.55;100.00
7407;BME280;3745;56.964;24.128;2023-04-07T02:47:56;102108.72;;;3.80;100.00
7407;BME280;3745;56.964;24.128;2023-04-07T02:50:22;102154.72;;;4.09;100.00
7407;BME280;3745;56.964;24.128;2023-04-07T02:52:50;102086.56;;;3.73;100.00
7407;BME280;3745;56.964;24.128;2023-04-07T02:55:16;102155.84;;;4.14;100.00
7407;BME280;3745;56.964;24.128;2023-04-07T02:57:42;102159.31;;;4.16;100.00
7407;BME280;3745;56.964;24.128;2023-04-07T03:00:08;102159.31;;;4.16;100.00
7407;BME280;3745;56.964;24.128;2023-04-07T03:02:34;102059.84;;;3.59;100.00
7407;BME280;3745;56.964;24.128;2023-04-07T03:05:00;102159.53;;;4.06;100.00
7407;BME280;3745;56.964;24.128;2023-04-07T03:07:26;102107.75;;;3.78;100.00
7407;BME280;3745;56.964;24.128;2023-04-07T03:09:52;102151.22;;;4.07;100.00
7407;BME280;3745;56.964;24.128;2023-04-07T03:12:17;102136.25;;;3.94;100.00
7407;BME280;3745;56.964;24.128;2023-04-07T03:14:43;102127.94;;;3.95;100.00
7407;BME280;3745;56.964;24.128;2023-04-07T03:17:09;102083.88;;;3.70;100.00
7407;BME280;3745;56.964;24.128;2023-04-07T03:19:34;102153.91;;;4.10;100.00
7407;BME280;3745;56.964;24.128;2023-04-07T03:22:00;102154.28;;;4.16;100.00
7407;BME280;3745;56.964;24.128;2023-04-07T03:24:26;102158.25;;;4.12;100.00
7407;BME280;3745;56.964;24.128;2023-04-07T03:26:52;102122.75;;;3.92;100.00
7407;BME280;3745;56.964;24.128;2023-04-07T03:29:18;102061.19;;;3.54;100.00
7407;BME280;3745;56.964;24.128;2023-04-07T03:31:43;102123.34;;;3.88;100.00
7407;BME280;3745;56.964;24.128;2023-04-07T03:34:09;102047.72;;;3.39;100.00
7407;BME280;3745;56.964;24.128;2023-04-07T03:36:35;102156.66;;;4.00;100.00
7407;BME280;3745;56.964;24.128;2023-04-07T03:39:00;102134.50;;;3.93;100.00
7407;BME280;3745;56.964;24.128;2023-04-07T03:41:26;102152.50;;;4.00;100.00
7407;BME280;3745;56.964;24.128;2023-04-07T03:43:51;102165.50;;;4.08;100.00
7407;BME280;3745;56.964;24.128;2023-04-07T03:46:19;102094.19;;;3.75;100.00
7407;BME280;3745;56.964;24.128;2023-04-07T03:48:45;102149.72;;;3.96;100.00
7407;BME280;3745;56.964;24.128;2023-04-07T03:51:12;102124.50;;;3.93;100.00
7407;BME280;3745;56.964;24.128;2023-04-07T03:53:37;102163.44;;;4.15;100.00
7407;BME280;3745;56.964;24.128;2023-04-07T03:56:03;102055.31;;;3.54;100.00
7407;BME280;3745;56.964;24.128;2023-04-07T03:58:29;102169.50;;;4.19;100.00
7407;BME280;3745;56.964;24.128;2023-04-07T04:00:55;102169.31;;;4.16;100.00
7407;BME280;3745;56.964;24.128;2023-04-07T04:03:20;102103.53;;;3.77;100.00
7407;BME280;3745;56.964;24.128;2023-04-07T04:05:46;102100.41;;;3.81;100.00
7407;BME280;3745;56.964;24.128;2023-04-07T04:08:11;102171.25;;;4.20;100.00
7407;BME280;3745;56.964;24.128;2023-04-07T04:10:37;102169.69;;;4.22;100.00
7407;BME280;3745;56.964;24.128;2023-04-07T04:13:02;102052.16;;;3.56;100.00
7407;BME280;3745;56.964;24.128;2023-04-07T04:15:31;102168.34;;;4.27;100.00
7407;BME280;3745;56.964;24.128;2023-04-07T04:17:56;102167.56;;;4.28;100.00
7407;BME280;3745;56.964;24.128;2023-04-07T04:20:22;102168.16;;;4.24;100.00
7407;BME280;3745;56.964;24.128;2023-04-07T04:22:48;102160.88;;;4.14;100.00
7407;BME280;3745;56.964;24.128;2023-04-07T04:25:15;102124.88;;;3.99;100.00
7407;BME280;3745;56.964;24.128;2023-04-07T04:27:40;102173.13;;;4.37;100.00
7407;BME280;3745;56.964;24.128;2023-04-07T04:30:07;102091.75;;;3.90;100.00
7407;BME280;3745;56.964;24.128;2023-04-07T04:32:32;102125.66;;;4.25;100.00
7407;BME280;3745;56.964;24.128;2023-04-07T04:34:59;102165.34;;;4.60;100.00
7407;BME280;3745;56.964;24.128;2023-04-07T04:37:24;102129.34;;;4.45;100.00
7407;BME280;3745;56.964;24.128;2023-04-07T04:39:50;102179.91;;;4.80;100.00
7407;BME280;3745;56.964;24.128;2023-04-07T04:42:16;102169.47;;;4.87;100.00
7407;BME280;3745;56.964;24.128;2023-04-07T04:44:42;102178.22;;;4.94;100.00
7407;BME280;3745;56.964;24.128;2023-04-07T04:47:08;102172.16;;;4.90;100.00
7407;BME280;3745;56.964;24.128;2023-04-07T04:49:33;102179.63;;;5.04;100.00
7407;BME280;3745;56.964;24.128;2023-04-07T04:51:59;102110.91;;;4.72;100.00
7407;BME280;3745;56.964;24.128;2023-04-07T04:54:25;102185.34;;;5.16;100.00
7407;BME280;3745;56.964;24.128;2023-04-07T04:56:50;102165.09;;;5.13;100.00
7407;BME280;3745;56.964;24.128;2023-04-07T04:59:16;102145.78;;;5.12;100.00
7407;BME280;3745;56.964;24.128;2023-04-07T05:01:41;102172.56;;;5.26;100.00
7407;BME280;3745;56.964;24.128;2023-04-07T05:04:07;102181.53;;;5.37;100.00
7407;BME280;3745;56.964;24.128;2023-04-07T05:06:34;102171.31;;;5.34;100.00
7407;BME280;3745;56.964;24.128;2023-04-07T05:09:00;102174.94;;;5.39;100.00
7407;BME280;3745;56.964;24.128;2023-04-07T05:11:26;102147.97;;;5.35;100.00
7407;BME280;3745;56.964;24.128;2023-04-07T05:13:51;102179.78;;;5.65;100.00
7407;BME280;3745;56.964;24.128;2023-04-07T05:16:17;102162.28;;;5.81;100.00
7407;BME280;3745;56.964;24.128;2023-04-07T05:18:42;102172.13;;;5.78;100.00
7407;BME280;3745;56.964;24.128;2023-04-07T05:21:08;102178.50;;;5.86;100.00
7407;BME280;3745;56.964;24.128;2023-04-07T05:23:34;102093.91;;;5.41;100.00
7407;BME280;3745;56.964;24.128;2023-04-07T05:26:00;102115.88;;;5.60;100.00
7407;BME280;3745;56.964;24.128;2023-04-07T05:28:26;102139.22;;;5.88;100.00
7407;BME280;3745;56.964;24.128;2023-04-07T05:30:52;102139.56;;;5.94;100.00
7407;BME280;3745;56.964;24.128;2023-04-07T05:33:18;102048.72;;;5.56;100.00
7407;BME280;3745;56.964;24.128;2023-04-07T05:35:44;102165.47;;;6.24;100.00
7407;BME280;3745;56.964;24.128;2023-04-07T05:38:10;102146.34;;;6.28;100.00
7407;BME280;3745;56.964;24.128;2023-04-07T05:40:36;102172.63;;;6.49;100.00
7407;BME280;3745;56.964;24.128;2023-04-07T05:43:02;102171.53;;;6.60;100.00
7407;BME280;3745;56.964;24.128;2023-04-07T05:45:27;102165.16;;;6.67;100.00
7407;BME280;3745;56.964;24.128;2023-04-07T05:47:53;102076.44;;;6.37;100.00
7407;BME280;3745;56.964;24.128;2023-04-07T05:50:18;102130.00;;;6.68;100.00
7407;BME280;3745;56.964;24.128;2023-04-07T05:52:44;102164.59;;;6.88;100.00
7407;BME280;3745;56.964;24.128;2023-04-07T05:55:10;102173.69;;;7.02;100.00
7407;BME280;3745;56.964;24.128;2023-04-07T05:57:36;102139.47;;;7.06;100.00
7407;BME280;3745;56.964;24.128;2023-04-07T06:00:02;102123.50;;;7.05;100.00
7407;BME280;3745;56.964;24.128;2023-04-07T06:02:29;102153.66;;;7.22;100.00
7407;BME280;3745;56.964;24.128;2023-04-07T06:04:54;102108.53;;;6.91;100.00
7407;BME280;3745;56.964;24.128;2023-04-07T06:07:20;102162.38;;;7.28;100.00
7407;BME280;3745;56.964;24.128;2023-04-07T06:09:46;102177.06;;;7.37;100.00
7407;BME280;3745;56.964;24.128;2023-04-07T06:12:12;102147.47;;;7.33;100.00
7407;BME280;3745;56.964;24.128;2023-04-07T06:14:38;102110.44;;;7.13;100.00
7407;BME280;3745;56.964;24.128;2023-04-07T06:17:03;102150.59;;;7.45;100.00
7407;BME280;3745;56.964;24.128;2023-04-07T06:19:29;102159.53;;;7.56;100.00
7407;BME280;3745;56.964;24.128;2023-04-07T06:21:55;102170.63;;;7.77;100.00
7407;BME280;3745;56.964;24.128;2023-04-07T06:24:20;102099.66;;;7.50;100.00
7407;BME280;3745;56.964;24.128;2023-04-07T06:26:50;102135.91;;;7.89;100.00
7407;BME280;3745;56.964;24.128;2023-04-07T06:29:16;102118.63;;;7.79;100.00
7407;BME280;3745;56.964;24.128;2023-04-07T06:31:42;102152.25;;;8.16;100.00
7407;BME280;3745;56.964;24.128;2023-04-07T06:34:07;102158.56;;;8.44;100.00
7407;BME280;3745;56.964;24.128;2023-04-07T06:36:33;102160.03;;;8.58;100.00
7407;BME280;3745;56.964;24.128;2023-04-07T06:38:59;102159.34;;;8.62;100.00
7407;BME280;3745;56.964;24.128;2023-04-07T06:41:25;102095.19;;;8.36;100.00
7407;BME280;3745;56.964;24.128;2023-04-07T06:43:50;102164.34;;;8.80;100.00
7407;BME280;3745;56.964;24.128;2023-04-07T06:46:17;102167.44;;;8.93;100.00
7407;BME280;3745;56.964;24.128;2023-04-07T06:48:42;102159.56;;;9.06;100.00
7407;BME280;3745;56.964;24.128;2023-04-07T06:51:08;102161.69;;;9.16;100.00
7407;BME280;3745;56.964;24.128;2023-04-07T06:53:34;102159.66;;;9.29;100.00
7407;BME280;3745;56.964;24.128;2023-04-07T06:56:08;102125.63;;;9.20;100.00
7407;BME280;3745;56.964;24.128;2023-04-07T06:58:35;102162.78;;;9.44;100.00
7407;BME280;3745;56.964;24.128;2023-04-07T07:01:01;102119.91;;;9.24;100.00
7407;BME280;3745;56.964;24.128;2023-04-07T07:03:28;102109.91;;;9.27;100.00
7407;BME280;3745;56.964;24.128;2023-04-07T07:05:54;102165.09;;;9.60;100.00
7407;BME280;3745;56.964;24.128;2023-04-07T07:08:27;102144.63;;;9.54;100.00
7407;BME280;3745;56.964;24.128;2023-04-07T07:10:53;102159.47;;;9.67;100.00
7407;BME280;3745;56.964;24.128;2023-04-07T07:13:21;102155.47;;;9.72;100.00
7407;BME280;3745;56.964;24.128;2023-04-07T07:15:51;102155.00;;;9.82;100.00
7407;BME280;3745;56.964;24.128;2023-04-07T07:18:17;102154.78;;;9.98;100.00
7407;BME280;3745;56.964;24.128;2023-04-07T07:20:43;102154.13;;;10.02;100.00
7407;BME280;3745;56.964;24.128;2023-04-07T07:23:09;102151.81;;;10.08;100.00
7407;BME280;3745;56.964;24.128;2023-04-07T07:25:34;102067.22;;;9.56;100.00
7407;BME280;3745;56.964;24.128;2023-04-07T07:28:00;102151.59;;;10.02;100.00
7407;BME280;3745;56.964;24.128;2023-04-07T07:30:25;102083.88;;;9.73;100.00
7407;BME280;3745;56.964;24.128;2023-04-07T07:32:52;102111.50;;;9.91;100.00
7407;BME280;3745;56.964;24.128;2023-04-07T07:35:18;102134.69;;;10.01;100.00
7407;BME280;3745;56.964;24.128;2023-04-07T07:37:44;102150.44;;;10.16;100.00
7407;BME280;3745;56.964;24.128;2023-04-07T07:40:10;102125.16;;;10.16;100.00
7407;BME280;3745;56.964;24.128;2023-04-07T07:42:36;102147.88;;;10.39;100.00
7407;BME280;3745;56.964;24.128;2023-04-07T07:45:05;102062.56;;;10.12;100.00
7407;BME280;3745;56.964;24.128;2023-04-07T07:47:31;102154.66;;;10.87;100.00
7407;BME280;3745;56.964;24.128;2023-04-07T07:49:57;102048.28;;;10.37;100.00
7407;BME280;3745;56.964;24.128;2023-04-07T07:52:23;102141.50;;;10.97;100.00
7407;BME280;3745;56.964;24.128;2023-04-07T07:54:49;102081.19;;;10.62;100.00
7407;BME280;3745;56.964;24.128;2023-04-07T07:57:15;102151.16;;;11.09;100.00
7407;BME280;3745;56.964;24.128;2023-04-07T07:59:41;102155.84;;;11.23;100.00
7407;BME280;3745;56.964;24.128;2023-04-07T08:02:07;102134.78;;;11.24;100.00
7407;BME280;3745;56.964;24.128;2023-04-07T08:04:35;102125.53;;;11.26;100.00
7407;BME280;3745;56.964;24.128;2023-04-07T08:07:05;102150.44;;;11.65;100.00
7407;BME280;3745;56.964;24.128;2023-04-07T08:09:30;102045.63;;;11.09;100.00
7407;BME280;3745;56.964;24.128;2023-04-07T08:11:57;102065.22;;;11.15;100.00
7407;BME280;3745;56.964;24.128;2023-04-07T08:14:22;102055.84;;;11.12;100.00
7407;BME280;3745;56.964;24.128;2023-04-07T08:16:48;101952.09;;;10.62;100.00
7407;BME280;3745;56.964;24.128;2023-04-07T08:19:14;102152.38;;;12.00;100.00
7407;BME280;3745;56.964;24.128;2023-04-07T08:21:39;102146.84;;;12.13;100.00
7407;BME280;3745;56.964;24.128;2023-04-07T08:24:05;102086.03;;;11.88;100.00
7407;BME280;3745;56.964;24.128;2023-04-07T08:26:31;102130.91;;;12.19;100.00
7407;BME280;3745;56.964;24.128;2023-04-07T08:28:57;102157.31;;;12.55;100.00
7407;BME280;3745;56.964;24.128;2023-04-07T08:31:23;102153.19;;;12.59;100.00
7407;BME280;3745;56.964;24.128;2023-04-07T08:33:49;102126.25;;;12.64;100.00
7407;BME280;3745;56.964;24.128;2023-04-07T08:36:19;102147.81;;;12.79;100.00
7407;BME280;3745;56.964;24.128;2023-04-07T08:38:45;102124.66;;;12.69;100.00
7407;BME280;3745;56.964;24.128;2023-04-07T08:41:12;102152.50;;;12.97;100.00
7407;BME280;3745;56.964;24.128;2023-04-07T08:43:41;102131.22;;;12.92;100.00
7407;BME280;3745;56.964;24.128;2023-04-07T08:46:09;102060.63;;;12.47;100.00
7407;BME280;3745;56.964;24.128;2023-04-07T08:48:37;102118.59;;;12.95;100.00
7407;BME280;3745;56.964;24.128;2023-04-07T08:51:05;102072.06;;;12.65;100.00
7407;BME280;3745;56.964;24.128;2023-04-07T08:53:48;102098.19;;;12.92;100.00
7407;BME280;3745;56.964;24.128;2023-04-07T08:56:17;102110.19;;;12.99;100.00
7407;BME280;3745;56.964;24.128;2023-04-07T08:58:45;102138.75;;;13.22;100.00
7407;BME280;3745;56.964;24.128;2023-04-07T09:01:11;102136.31;;;13.26;100.00
7407;BME280;3745;56.964;24.128;2023-04-07T09:03:38;102140.91;;;13.41;100.00
7407;BME280;3745;56.964;24.128;2023-04-07T09:06:04;102093.66;;;13.13;100.00
7407;BME280;3745;56.964;24.128;2023-04-07T09:08:30;102085.25;;;13.17;100.00
7407;BME280;3745;56.964;24.128;2023-04-07T09:10:56;102083.91;;;13.31;100.00
7407;BME280;3745;56.964;24.128;2023-04-07T09:13:23;102068.66;;;13.31;100.00
7407;BME280;3745;56.964;24.128;2023-04-07T09:15:49;102098.03;;;13.57;100.00
7407;BME280;3745;56.964;24.128;2023-04-07T09:18:15;102115.38;;;13.74;100.00
7407;BME280;3745;56.964;24.128;2023-04-07T09:20:58;102062.31;;;13.51;100.00
7407;BME280;3745;56.964;24.128;2023-04-07T09:23:29;102119.19;;;13.94;100.00
7407;BME280;3745;56.964;24.128;2023-04-07T09:25:56;102076.75;;;13.93;100.00
7407;BME280;3745;56.964;24.128;2023-04-07T09:28:24;102132.16;;;14.46;100.00
7407;BME280;3745;56.964;24.128;2023-04-07T09:30:54;102118.41;;;14.38;100.00
7407;BME280;3745;56.964;24.128;2023-04-07T09:33:26;102125.59;;;14.57;100.00
7407;BME280;3745;56.964;24.128;2023-04-07T09:35:53;102079.41;;;14.39;100.00
7407;BME280;3745;56.964;24.128;2023-04-07T09:38:18;102132.88;;;14.86;100.00
7407;BME280;3745;56.964;24.128;2023-04-07T09:40:44;102126.63;;;15.18;100.00
7407;BME280;3745;56.964;24.128;2023-04-07T09:43:17;102145.34;;;15.20;100.00
7407;BME280;3745;56.964;24.128;2023-04-07T09:45:43;102135.03;;;15.14;100.00
7407;BME280;3745;56.964;24.128;2023-04-07T09:48:21;102104.28;;;15.05;100.00
7407;BME280;3745;56.964;24.128;2023-04-07T09:50:47;102090.56;;;14.97;100.00
7407;BME280;3745;56.964;24.128;2023-04-07T09:53:16;102138.63;;;15.25;100.00
7407;BME280;3745;56.964;24.128;2023-04-07T09:55:44;102107.25;;;15.31;100.00
7407;BME280;3745;56.964;24.128;2023-04-07T09:58:13;102129.78;;;15.57;100.00
7407;BME280;3745;56.964;24.128;2023-04-07T10:00:41;102034.75;;;15.15;100.00
7407;BME280;3745;56.964;24.128;2023-04-07T10:03:07;102125.75;;;15.71;100.00
7407;BME280;3745;56.964;24.128;2023-04-07T10:05:36;102132.75;;;15.88;100.00
7407;BME280;3745;56.964;24.128;2023-04-07T10:08:05;102136.22;;;15.90;100.00
7407;BME280;3745;56.964;24.128;2023-04-07T10:10:31;102060.94;;;15.60;100.00
7407;BME280;3745;56.964;24.128;2023-04-07T10:12:57;102114.25;;;16.04;100.00
7407;BME280;3745;56.964;24.128;2023-04-07T10:15:26;102115.97;;;16.05;100.00
7407;BME280;3745;56.964;24.128;2023-04-07T10:17:53;102123.31;;;15.81;100.00
7407;BME280;3745;56.964;24.128;2023-04-07T10:20:21;102064.38;;;15.62;100.00
7407;BME280;3745;56.964;24.128;2023-04-07T10:22:50;102026.00;;;15.56;100.00
7407;BME280;3745;56.964;24.128;2023-04-07T10:25:18;102119.59;;;16.25;100.00
7407;BME280;3745;56.964;24.128;2023-04-07T10:27:51;102112.78;;;16.24;100.00
7407;BME280;3745;56.964;24.128;2023-04-07T10:30:24;102083.78;;;16.22;100.00
7407;BME280;3745;56.964;24.128;2023-04-07T10:32:52;102072.03;;;16.36;100.00
7407;BME280;3745;56.964;24.128;2023-04-07T10:35:19;102056.56;;;16.21;100.00
7407;BME280;3745;56.964;24.128;2023-04-07T10:38:08;102101.28;;;16.62;100.00
7407;BME280;3745;56.964;24.128;2023-04-07T10:40:41;102111.38;;;16.53;100.00
7407;BME280;3745;56.964;24.128;2023-04-07T10:43:08;102097.91;;;16.63;100.00
7407;BME280;3745;56.964;24.128;2023-04-07T10:48:17;102111.03;;;17.03;100.00
7407;BME280;3745;56.964;24.128;2023-04-07T10:50:45;102105.16;;;17.16;100.00
7407;BME280;3745;56.964;24.128;2023-04-07T10:53:12;102089.81;;;17.20;100.00
7407;BME280;3745;56.964;24.128;2023-04-07T10:55:45;102100.97;;;17.30;100.00
7407;BME280;3745;56.964;24.128;2023-04-07T10:58:24;102099.38;;;17.46;100.00
7407;BME280;3745;56.964;24.128;2023-04-07T11:03:23;102098.47;;;17.39;100.00
7407;BME280;3745;56.964;24.128;2023-04-07T11:05:49;102103.59;;;17.39;100.00
7407;BME280;3745;56.964;24.128;2023-04-07T11:08:15;102072.47;;;16.80;100.00
7407;BME280;3745;56.964;24.128;2023-04-07T11:10:56;102100.63;;;16.86;100.00
7407;BME280;3745;56.964;24.128;2023-04-07T11:13:21;102101.44;;;16.80;100.00
7407;BME280;3745;56.964;24.128;2023-04-07T11:15:49;102096.84;;;16.49;100.00
7407;BME280;3745;56.964;24.128;2023-04-07T11:18:21;102094.41;;;16.58;100.00
7407;BME280;3745;56.964;24.128;2023-04-07T11:20:52;102053.31;;;16.40;100.00
7407;BME280;3745;56.964;24.128;2023-04-07T11:23:21;102029.41;;;16.32;100.00
7407;BME280;3745;56.964;24.128;2023-04-07T11:25:52;102026.03;;;16.36;100.00
7407;BME280;3745;56.964;24.128;2023-04-07T11:28:24;102080.09;;;16.72;100.00
7407;BME280;3745;56.964;24.128;2023-04-07T11:30:51;102089.41;;;16.70;100.00
7407;BME280;3745;56.964;24.128;2023-04-07T11:33:19;102098.00;;;16.75;100.00
7407;BME280;3745;56.964;24.128;2023-04-07T11:35:53;102050.13;;;16.59;100.00
7407;BME280;3745;56.964;24.128;2023-04-07T11:38:20;102060.47;;;16.74;100.00
7407;BME280;3745;56.964;24.128;2023-04-07T11:40:47;102093.03;;;16.91;100.00
7407;BME280;3745;56.964;24.128;2023-04-07T11:43:20;102097.31;;;16.96;100.00
7407;BME280;3745;56.964;24.128;2023-04-07T11:46:10;102094.75;;;16.96;100.00
7407;BME280;3745;56.964;24.128;2023-04-07T11:48:38;102058.09;;;16.96;100.00
7407;BME280;3745;56.964;24.128;2023-04-07T11:51:04;102067.66;;;17.21;100.00
7407;BME280;3745;56.964;24.128;2023-04-07T11:53:34;102095.97;;;17.48;100.00
7407;BME280;3745;56.964;24.128;2023-04-07T11:56:04;102096.00;;;17.53;100.00
7407;BME280;3745;56.964;24.128;2023-04-07T11:58:35;102084.88;;;17.46;100.00
7407;BME280;3745;56.964;24.128;2023-04-07T12:01:03;101917.06;;;16.41;100.00
7407;BME280;3745;56.964;24.128;2023-04-07T12:03:36;102095.22;;;17.58;100.00
7407;BME280;3745;56.964;24.128;2023-04-07T12:06:03;102090.13;;;17.61;100.00
7407;BME280;3745;56.964;24.128;2023-04-07T12:08:55;102086.63;;;17.53;100.00
7407;BME280;3745;56.964;24.128;2023-04-07T12:11:21;102091.66;;;17.41;100.00
7407;BME280;3745;56.964;24.128;2023-04-07T12:13:46;102069.59;;;17.55;100.00
7407;BME280;3745;56.964;24.128;2023-04-07T12:16:12;102049.13;;;17.55;100.00
7407;BME280;3745;56.964;24.128;2023-04-07T12:18:41;102080.84;;;17.94;100.00
7407;BME280;3745;56.964;24.128;2023-04-07T12:21:10;102085.19;;;18.10;100.00
7407;BME280;3745;56.964;24.128;2023-04-07T12:23:36;102069.84;;;18.25;98.85
7407;BME280;3745;56.964;24.128;2023-04-07T12:26:01;102061.28;;;18.05;99.00
7407;BME280;3745;56.964;24.128;2023-04-07T12:28:27;102059.59;;;18.31;100.00
7407;BME280;3745;56.964;24.128;2023-04-07T12:30:53;102018.56;;;18.10;95.64
7407;BME280;3745;56.964;24.128;2023-04-07T12:33:19;102005.75;;;18.08;97.87
7407;BME280;3745;56.964;24.128;2023-04-07T12:35:45;102071.63;;;18.53;92.76
7407;BME280;3745;56.964;24.128;2023-04-07T12:38:11;102023.72;;;18.40;93.34
7407;BME280;3745;56.964;24.128;2023-04-07T12:40:37;102070.78;;;18.71;93.03
7407;BME280;3745;56.964;24.128;2023-04-07T12:43:03;102064.84;;;18.85;92.54
7407;BME280;3745;56.964;24.128;2023-04-07T12:45:29;102033.19;;;18.73;89.43
7407;BME280;3745;56.964;24.128;2023-04-07T12:48:05;102072.50;;;19.02;89.98
7407;BME280;3745;56.964;24.128;2023-04-07T12:50:31;102052.81;;;18.86;86.87
7407;BME280;3745;56.964;24.128;2023-04-07T12:52:57;102063.97;;;18.76;89.87
7407;BME280;3745;56.964;24.128;2023-04-07T12:55:28;101924.59;;;18.00;91.12
7407;BME280;3745;56.964;24.128;2023-04-07T12:57:55;102024.63;;;18.53;90.76
7407;BME280;3745;56.964;24.128;2023-04-07T13:00:21;102071.63;;;18.99;89.92
7407;BME280;3745;56.964;24.128;2023-04-07T13:02:46;102059.69;;;19.01;88.31
7407;BME280;3745;56.964;24.128;2023-04-07T13:05:12;102032.31;;;19.00;90.77
7407;BME280;3745;56.964;24.128;2023-04-07T13:07:38;102040.81;;;19.11;86.27
7407;BME280;3745;56.964;24.128;2023-04-07T13:10:06;102030.53;;;19.20;88.21